Orbital elements of FREGAT DEB
| Launched | 17 July 2011 |
| Flight ended | – |
| Launch site | Tyuratam Missile and Space Center, Kazakhstan (Also known as Baikonur Cosmodrome) |
| Owner | Commonwealth of Independent States (former USSR) |
| NORAD ID | 45635 |
| Date fetched |
Epoch osculation |
Inc. [°] |
Ecc. | RA asc node [hr] |
Arg Peri. [°] |
Mean anom [°] |
Mean motion [rev/day] |
Abs. mag |
| Date fetched |
Epoch osculation |
Inc. [°] |
Ecc. | RA asc node [hr] |
Arg Peri. [°] |
Mean anom [°] |
Mean motion [rev/day] |
Abs. mag |
| 2026 May 05 17:57 | 2026 May 05 09:49:55 | 51.1785 | 0.07661 | 9.0455 | 271.8126 | 79.5277 | 13.71917 | – |
| 2026 May 04 17:57 | 2026 Apr 30 10:54:17 | 51.1775 | 0.07697 | 10.3029 | 257.2618 | 79.5277 | 13.71917 | – |
| 2026 May 03 17:57 | 2026 Apr 30 10:54:17 | 51.1775 | 0.07697 | 10.3029 | 257.2618 | 79.5277 | 13.71917 | – |
| 2026 May 02 17:57 | 2026 Apr 30 10:54:17 | 51.1775 | 0.07697 | 10.3029 | 257.2618 | 79.5277 | 13.71917 | – |
| 2026 May 01 17:56 | 2026 Apr 30 10:54:17 | 51.1775 | 0.07697 | 10.3029 | 257.2618 | 79.5277 | 13.71917 | – |
| 2026 Apr 30 17:56 | 2026 Apr 30 10:54:17 | 51.1775 | 0.07697 | 10.3029 | 257.2618 | 79.5277 | 13.71917 | – |
| 2026 Apr 29 17:57 | 2026 Apr 24 07:53:03 | 51.1804 | 0.07743 | 11.8547 | 239.2372 | 79.5277 | 13.71917 | – |
| 2026 Apr 28 17:56 | 2026 Apr 24 07:53:03 | 51.1804 | 0.07743 | 11.8547 | 239.2372 | 79.5277 | 13.71917 | – |
| 2026 Apr 27 17:58 | 2026 Apr 24 07:53:03 | 51.1804 | 0.07743 | 11.8547 | 239.2372 | 79.5277 | 13.71917 | – |
| 2026 Apr 26 17:58 | 2026 Apr 24 07:53:03 | 51.1804 | 0.07743 | 11.8547 | 239.2372 | 79.5277 | 13.71917 | – |
| 2026 Apr 25 17:58 | 2026 Apr 24 07:53:03 | 51.1804 | 0.07743 | 11.8547 | 239.2372 | 79.5277 | 13.71917 | – |
| 2026 Apr 24 17:59 | 2026 Apr 24 07:53:03 | 51.1804 | 0.07743 | 11.8547 | 239.2372 | 79.5277 | 13.71917 | – |
| 2026 Apr 23 17:57 | 2026 Apr 19 12:16:30 | 51.1815 | 0.07777 | 13.0729 | 225.0963 | 79.5277 | 13.71917 | – |
| 2026 Apr 22 17:57 | 2026 Apr 19 12:16:30 | 51.1815 | 0.07777 | 13.0729 | 225.0963 | 79.5277 | 13.71917 | – |
| 2026 Apr 21 17:57 | 2026 Apr 19 12:16:30 | 51.1815 | 0.07777 | 13.0729 | 225.0963 | 79.5277 | 13.71917 | – |
| 2026 Apr 20 17:57 | 2026 Apr 19 12:16:30 | 51.1815 | 0.07777 | 13.0729 | 225.0963 | 79.5277 | 13.71917 | – |
| 2026 Apr 19 17:58 | 2026 Apr 19 12:16:30 | 51.1815 | 0.07777 | 13.0729 | 225.0963 | 79.5277 | 13.71917 | – |
| 2026 Apr 18 17:56 | 2026 Apr 13 07:15:37 | 51.1791 | 0.07828 | 14.6397 | 206.8880 | 79.5277 | 13.71917 | – |
| 2026 Apr 16 17:57 | 2026 Apr 13 07:15:37 | 51.1791 | 0.07828 | 14.6397 | 206.8880 | 79.5277 | 13.71917 | – |
| 2026 Apr 14 17:57 | 2026 Apr 13 07:15:37 | 51.1791 | 0.07828 | 14.6397 | 206.8880 | 79.5277 | 13.71917 | – |
| 2026 Apr 13 17:57 | 2026 Apr 13 07:15:37 | 51.1791 | 0.07828 | 14.6397 | 206.8880 | 79.5277 | 13.71917 | – |
| 2026 Apr 12 17:57 | 2026 Apr 08 13:11:45 | 51.1809 | 0.07894 | 15.8368 | 192.9927 | 79.5277 | 13.71917 | – |
| 2026 Apr 11 17:57 | 2026 Apr 08 13:11:45 | 51.1809 | 0.07894 | 15.8368 | 192.9927 | 79.5277 | 13.71917 | – |
| 2026 Apr 10 17:58 | 2026 Apr 08 13:11:45 | 51.1809 | 0.07894 | 15.8368 | 192.9927 | 79.5277 | 13.71917 | – |
| 2026 Apr 09 18:01 | 2026 Apr 08 13:11:45 | 51.1809 | 0.07894 | 15.8368 | 192.9927 | 79.5277 | 13.71917 | – |
| 2026 Apr 08 17:57 | 2026 Apr 08 13:11:45 | 51.1809 | 0.07894 | 15.8368 | 192.9927 | 79.5277 | 13.71917 | – |